Time;durP1;ratioP1;P1;durP2;ratioP2;P2;SDS_P1;SDS_P2;PMS_P1;PMS_P2;Temp;Humidity;BMP_temperature;BMP_pressure;BME280_temperature;BME280_humidity;BME280_pressure;Samples;Min_cycle;Max_cycle;Signal;HPM_P1;HPM_P2
2022/09/04 00:02:15;;;;;;;0.52;0.52;;;;;;;;;;5002133;28;20041;-86
2022/09/04 00:04:59;;;;;;;0.77;0.60;;;;;;;;;;5035271;28;20444;-85
2022/09/04 00:07:33;;;;;;;;;;;;;;;;;;5036097;28;20413;-85
2022/09/04 00:10:11;;;;;;;0.47;0.47;;;;;;;;;;5035557;28;20117;-86
2022/09/04 00:12:47;;;;;;;1.75;0.55;;;;;;;;;;5036035;28;20056;-84
2022/09/04 00:15:34;;;;;;;0.60;0.60;;;;;;;;;;5036400;28;20040;-85
2022/09/04 00:18:20;;;;;;;1.13;0.43;;;;;;;;;;5036338;28;20064;-86
2022/09/04 00:20:58;;;;;;;0.60;0.47;;;;;;;;;;5035990;28;20037;-85
2022/09/04 00:23:26;;;;;;;0.52;0.50;;;;;;;;;;5036360;28;20045;-85
2022/09/04 00:26:13;;;;;;;1.63;0.80;;;;;;;;;;5035295;28;20404;-86
2022/09/04 00:28:52;;;;;;;0.85;0.57;;;;;;;;;;5034553;28;20584;-86
2022/09/04 00:31:18;;;;;;;0.88;0.63;;;;;;;;;;5035979;28;20029;-87
2022/09/04 00:33:58;;;;;;;1.20;0.60;;;;;;;;;;5034176;28;20037;-86
2022/09/04 00:36:26;;;;;;;1.17;0.55;;;;;;;;;;5050128;28;20120;-86
2022/09/04 00:39:01;;;;;;;0.70;0.63;;;;;;;;;;5035557;28;20088;-86
2022/09/04 00:41:33;;;;;;;1.08;0.60;;;;;;;;;;5035738;28;20075;-85
2022/09/04 00:44:27;;;;;;;0.55;0.55;;;;;;;;;;5035367;28;20033;-85
2022/09/04 00:47:01;;;;;;;1.85;0.52;;;;;;;;;;5034119;28;20095;-86
2022/09/04 00:49:49;;;;;;;0.60;0.60;;;;;;;;;;5035629;28;20033;-86
2022/09/04 00:52:33;;;;;;;0.70;0.70;;;;;;;;;;5033647;28;20508;-85
2022/09/04 00:55:26;;;;;;;1.13;0.70;;;;;;;;;;5035193;28;20029;-85
2022/09/04 00:58:25;;;;;;;1.02;0.70;;;;;;;;;;5033629;28;20033;-86
2022/09/04 01:00:56;;;;;;;0.65;0.60;;;;;;;;;;5033673;28;20049;-85
2022/09/04 01:03:52;;;;;;;1.65;0.60;;;;;;;;;;5035224;28;20113;-85
2022/09/04 01:06:38;;;;;;;2.72;0.70;;;;;;;;;;5034406;28;20033;-85
2022/09/04 01:09:20;;;;;;;0.60;0.60;;;;;;;;;;5034593;28;20526;-85
2022/09/04 01:12:09;;;;;;;0.80;0.70;;;;;;;;;;5034346;28;20041;-86
2022/09/04 01:14:45;;;;;;;1.58;0.70;;;;;;;;;;5029616;28;20033;-85
2022/09/04 01:17:37;;;;;;;0.60;0.60;;;;;;;;;;5033238;28;20481;-86
2022/09/04 01:20:15;;;;;;;2.38;0.70;;;;;;;;;;5034265;28;20128;-86
2022/09/04 01:22:50;;;;;;;0.90;0.70;;;;;;;;;;5033175;28;20103;-85
2022/09/04 01:25:53;;;;;;;1.00;0.65;;;;;;;;;;5034095;28;20039;-85
2022/09/04 01:28:33;;;;;;;1.70;0.70;;;;;;;;;;5034206;28;20034;-85
2022/09/04 01:31:27;;;;;;;1.73;0.70;;;;;;;;;;5033991;28;20029;-85
2022/09/04 01:34:11;;;;;;;1.02;0.90;;;;;;;;;;5034061;28;20540;-85
2022/09/04 01:36:54;;;;;;;1.10;0.80;;;;;;;;;;5032963;28;20418;-85
2022/09/04 01:39:23;;;;;;;0.70;0.70;;;;;;;;;;5032602;28;20395;-85
2022/09/04 01:41:56;;;;;;;0.90;0.70;;;;;;;;;;5033702;28;20037;-86
2022/09/04 01:44:22;;;;;;;0.95;0.73;;;;;;;;;;5033525;28;20037;-87
2022/09/04 01:46:59;;;;;;;0.95;0.70;;;;;;;;;;5032566;28;20048;-85
2022/09/04 01:49:40;;;;;;;4.25;0.80;;;;;;;;;;5031532;28;20166;-86
2022/09/04 01:52:11;;;;;;;1.55;0.65;;;;;;;;;;5033786;28;20113;-85
2022/09/04 01:55:07;;;;;;;0.63;0.63;;;;;;;;;;5033443;28;20493;-84
2022/09/04 01:57:41;;;;;;;0.82;0.60;;;;;;;;;;5033704;28;20087;-85
2022/09/04 02:00:14;;;;;;;0.80;0.80;;;;;;;;;;5032689;28;20043;-86
2022/09/04 02:03:05;;;;;;;0.68;0.60;;;;;;;;;;5033605;28;20491;-85
2022/09/04 02:06:16;;;;;;;0.70;0.70;;;;;;;;;;5030533;28;20045;-85
2022/09/04 02:08:47;;;;;;;1.95;0.60;;;;;;;;;;4972633;28;20396;-85
2022/09/04 02:11:34;;;;;;;1.02;0.80;;;;;;;;;;4971976;28;20596;-85
2022/09/04 02:14:14;;;;;;;0.70;0.68;;;;;;;;;;5004060;28;20394;-87
2022/09/04 02:16:55;;;;;;;2.67;0.82;;;;;;;;;;5033357;28;20465;-85
2022/09/04 02:19:46;;;;;;;0.63;0.60;;;;;;;;;;5033271;28;20512;-85
2022/09/04 02:22:25;;;;;;;1.50;1.00;;;;;;;;;;5033087;28;20087;-85
2022/09/04 02:25:08;;;;;;;1.55;1.00;;;;;;;;;;5033273;28;20443;-84
2022/09/04 02:28:01;;;;;;;0.87;0.87;;;;;;;;;;5033419;28;20037;-85
2022/09/04 02:30:38;;;;;;;2.70;0.90;;;;;;;;;;5032323;28;20079;-85
2022/09/04 02:33:23;;;;;;;2.45;0.88;;;;;;;;;;5033607;28;20041;-85
2022/09/04 02:36:26;;;;;;;1.30;0.85;;;;;;;;;;5031889;28;20056;-86
2022/09/04 02:39:31;;;;;;;0.70;0.70;;;;;;;;;;5033327;28;20496;-85
2022/09/04 02:41:57;;;;;;;;;;;;;;;;;;5031015;28;20056;-85
2022/09/04 02:44:32;;;;;;;1.52;0.80;;;;;;;;;;5031716;28;20373;-86
2022/09/04 02:47:12;;;;;;;0.80;0.80;;;;;;;;;;5031982;28;20037;-85
2022/09/04 02:49:48;;;;;;;0.93;0.70;;;;;;;;;;5033138;28;20036;-85
2022/09/04 02:52:41;;;;;;;0.73;0.73;;;;;;;;;;5033147;28;20034;-86
2022/09/04 02:55:22;;;;;;;2.45;0.80;;;;;;;;;;5032994;28;20021;-85
2022/09/04 02:58:00;;;;;;;3.00;0.80;;;;;;;;;;5032775;28;20112;-86
2022/09/04 03:00:40;;;;;;;1.63;1.00;;;;;;;;;;5034524;28;20075;-86
2022/09/04 03:03:18;;;;;;;1.98;0.90;;;;;;;;;;5037066;28;20037;-85
2022/09/04 03:06:05;;;;;;;1.10;0.77;;;;;;;;;;5036628;28;20033;-87
2022/09/04 03:08:43;;;;;;;1.30;0.80;;;;;;;;;;5035464;28;20064;-85
2022/09/04 03:11:11;;;;;;;1.58;0.82;;;;;;;;;;5035154;28;20044;-86
2022/09/04 03:13:52;;;;;;;0.82;0.80;;;;;;;;;;5035703;28;20029;-85
2022/09/04 03:16:31;;;;;;;1.50;0.88;;;;;;;;;;5036583;28;20029;-85
2022/09/04 03:19:15;;;;;;;3.33;1.10;;;;;;;;;;5037026;28;20124;-85
2022/09/04 03:21:59;;;;;;;1.48;1.10;;;;;;;;;;5036558;28;20044;-87
2022/09/04 03:24:51;;;;;;;1.38;0.88;;;;;;;;;;5037615;28;20041;-86
2022/09/04 03:27:17;;;;;;;1.10;0.90;;;;;;;;;;4998563;28;20041;-85
2022/09/04 03:29:43;;;;;;;1.35;1.08;;;;;;;;;;5036756;28;20026;-86
2022/09/04 03:32:19;;;;;;;3.42;1.00;;;;;;;;;;5036961;28;20113;-85
2022/09/04 03:34:54;;;;;;;1.95;0.90;;;;;;;;;;5036061;28;20029;-86
2022/09/04 03:37:34;;;;;;;1.40;0.90;;;;;;;;;;5036475;28;20482;-86
2022/09/04 03:40:15;;;;;;;1.40;1.02;;;;;;;;;;5036610;28;20083;-85
2022/09/04 03:43:04;;;;;;;1.27;0.90;;;;;;;;;;5035050;28;20029;-85
2022/09/04 03:45:38;;;;;;;2.53;1.00;;;;;;;;;;5035790;28;20095;-86
2022/09/04 03:48:22;;;;;;;2.35;1.10;;;;;;;;;;5034827;28;20033;-86
2022/09/04 03:51:27;;;;;;;2.63;0.90;;;;;;;;;;5036135;28;20090;-85
2022/09/04 03:53:58;;;;;;;1.30;1.00;;;;;;;;;;5034677;28;20033;-84
2022/09/04 03:56:54;;;;;;;4.10;1.17;;;;;;;;;;5036209;28;20035;-85
2022/09/04 03:59:45;;;;;;;1.85;0.80;;;;;;;;;;5035977;28;20041;-84
2022/09/04 04:02:32;;;;;;;1.35;1.00;;;;;;;;;;5035839;28;20041;-85
2022/09/04 04:05:19;;;;;;;2.22;0.90;;;;;;;;;;5035539;28;20396;-85
2022/09/04 04:08:07;;;;;;;1.58;1.10;;;;;;;;;;5035834;28;20040;-85
2022/09/04 04:10:49;;;;;;;0.98;0.88;;;;;;;;;;5035334;28;20029;-85
2022/09/04 04:13:34;;;;;;;2.35;1.10;;;;;;;;;;5033857;28;20075;-86
2022/09/04 04:16:18;;;;;;;1.17;0.95;;;;;;;;;;5035227;28;20474;-86
2022/09/04 04:18:46;;;;;;;1.50;1.00;;;;;;;;;;5035549;28;20036;-85
2022/09/04 04:21:30;;;;;;;1.00;0.90;;;;;;;;;;5035135;28;20155;-84
2022/09/04 04:24:18;;;;;;;0.93;0.90;;;;;;;;;;5034019;28;20038;-83
2022/09/04 04:27:16;;;;;;;1.85;0.98;;;;;;;;;;5034121;28;20099;-86
2022/09/04 04:29:44;;;;;;;2.20;0.98;;;;;;;;;;4981599;28;20046;-85
2022/09/04 04:32:31;;;;;;;2.35;0.80;;;;;;;;;;5035639;28;20033;-86
2022/09/04 04:35:00;;;;;;;1.02;0.90;;;;;;;;;;5034033;28;20037;-85
2022/09/04 04:37:59;;;;;;;1.33;1.00;;;;;;;;;;5035587;28;20436;-85
2022/09/04 04:40:29;;;;;;;1.65;1.00;;;;;;;;;;5034063;28;20022;-85
2022/09/04 04:43:04;;;;;;;1.10;0.90;;;;;;;;;;5035448;28;20033;-86
2022/09/04 04:46:00;;;;;;;1.00;0.90;;;;;;;;;;5035974;28;20033;-86
2022/09/04 04:48:35;;;;;;;1.42;1.00;;;;;;;;;;5035471;28;20383;-85
2022/09/04 04:51:41;;;;;;;1.42;1.10;;;;;;;;;;5035533;28;20043;-86
2022/09/04 04:54:25;;;;;;;2.25;1.00;;;;;;;;;;5034864;28;20509;-86
2022/09/04 04:57:00;;;;;;;4.93;1.15;;;;;;;;;;5035831;28;20727;-86
2022/09/04 04:59:40;;;;;;;1.80;1.00;;;;;;;;;;5035300;28;20044;-86
2022/09/04 05:02:30;;;;;;;1.13;1.00;;;;;;;;;;5034727;28;20498;-86
2022/09/04 05:05:11;;;;;;;2.42;1.00;;;;;;;;;;5034621;28;20056;-86
2022/09/04 05:07:47;;;;;;;1.40;1.20;;;;;;;;;;5036032;28;20108;-86
2022/09/04 05:10:22;;;;;;;1.20;1.00;;;;;;;;;;5034245;28;20509;-84
2022/09/04 05:12:57;;;;;;;1.50;1.15;;;;;;;;;;5036184;28;20029;-86
2022/09/04 05:15:44;;;;;;;1.52;1.05;;;;;;;;;;5035795;28;20034;-86
2022/09/04 05:18:29;;;;;;;2.72;1.20;;;;;;;;;;5035584;28;20036;-86
2022/09/04 05:21:02;;;;;;;1.33;1.10;;;;;;;;;;5034090;28;20103;-86
2022/09/04 05:23:40;;;;;;;1.58;1.10;;;;;;;;;;5035638;28;20069;-87
2022/09/04 05:26:25;;;;;;;1.60;1.10;;;;;;;;;;5035213;28;20124;-86
2022/09/04 05:29:08;;;;;;;1.25;1.10;;;;;;;;;;5035107;28;20545;-86
2022/09/04 05:32:06;;;;;;;2.08;0.98;;;;;;;;;;5033947;28;20045;-87
2022/09/04 05:34:50;;;;;;;3.05;1.20;;;;;;;;;;5034942;28;20037;-86
2022/09/04 05:37:24;;;;;;;1.40;1.00;;;;;;;;;;5017417;28;20053;-87
2022/09/04 05:40:23;;;;;;;1.40;1.08;;;;;;;;;;5033779;28;20037;-86
2022/09/04 05:42:52;;;;;;;1.27;1.00;;;;;;;;;;5035157;28;20041;-85
2022/09/04 05:45:23;;;;;;;3.45;1.25;;;;;;;;;;5035451;28;20029;-87
2022/09/04 05:48:19;;;;;;;2.33;1.73;;;;;;;;;;5035040;28;20037;-85
2022/09/04 05:51:15;;;;;;;1.10;1.00;;;;;;;;;;5033383;28;20383;-85
2022/09/04 05:54:42;;;;;;;2.17;1.00;;;;;;;;;;5006401;28;20045;-86
2022/09/04 05:57:23;;;;;;;1.17;1.08;;;;;;;;;;4971725;28;20043;-86
2022/09/04 06:00:15;;;;;;;1.10;1.00;;;;;;;;;;5035119;28;20057;-86
2022/09/04 06:02:55;;;;;;;2.78;1.30;;;;;;;;;;5035092;28;20042;-85
2022/09/04 06:05:48;;;;;;;1.17;1.08;;;;;;;;;;5035043;28;20045;-86
2022/09/04 06:08:17;;;;;;;3.30;1.30;;;;;;;;;;5034878;28;20037;-86
2022/09/04 06:11:01;;;;;;;1.63;1.20;;;;;;;;;;5034295;28;20034;-83
2022/09/04 06:13:53;;;;;;;1.63;1.10;;;;;;;;;;5036260;28;20029;-87
2022/09/04 06:16:59;;;;;;;1.75;0.95;;;;;;;;;;5012085;28;20784;-86
2022/09/04 06:19:46;;;;;;;1.40;1.17;;;;;;;;;;4975020;28;20043;-86
2022/09/04 06:22:36;;;;;;;1.65;1.30;;;;;;;;;;4974600;28;20074;-86
2022/09/04 06:25:20;;;;;;;2.58;1.60;;;;;;;;;;5022757;28;20045;-85
2022/09/04 06:28:07;;;;;;;1.52;1.20;;;;;;;;;;5035450;28;20033;-85
2022/09/04 06:31:01;;;;;;;1.15;1.00;;;;;;;;;;5034546;28;20083;-86
2022/09/04 06:34:03;;;;;;;1.08;0.98;;;;;;;;;;5033832;28;20421;-86
2022/09/04 06:36:39;;;;;;;1.88;1.00;;;;;;;;;;5033801;28;20026;-86
2022/09/04 06:39:23;;;;;;;2.45;1.30;;;;;;;;;;5048345;28;20049;-87
2022/09/04 06:42:03;;;;;;;3.13;2.38;;;;;;;;;;5053073;28;20036;-85
2022/09/04 06:44:47;;;;;;;5.35;3.67;;;;;;;;;;5052747;28;20040;-85
2022/09/04 06:47:12;;;;;;;;;;;;;;;;;;5054468;28;20033;-86
2022/09/04 06:49:47;;;;;;;1.95;1.30;;;;;;;;;;5054466;28;19924;-86
2022/09/04 06:52:24;;;;;;;1.50;1.20;;;;;;;;;;5054462;28;20098;-85
2022/09/04 06:54:55;;;;;;;2.67;1.20;;;;;;;;;;5053087;28;20040;-86
2022/09/04 06:57:34;;;;;;;1.52;1.10;;;;;;;;;;5042478;28;20042;-86
2022/09/04 07:00:08;;;;;;;1.20;0.90;;;;;;;;;;5034080;28;20033;-86
2022/09/04 07:03:07;;;;;;;0.85;0.80;;;;;;;;;;5034037;28;20410;-86
2022/09/04 07:06:17;;;;;;;1.48;0.88;;;;;;;;;;5033385;28;20479;-85
2022/09/04 07:09:04;;;;;;;1.13;1.00;;;;;;;;;;4973526;28;20404;-86
2022/09/04 07:11:35;;;;;;;1.45;0.90;;;;;;;;;;5035012;28;20080;-85
2022/09/04 07:14:30;;;;;;;1.52;1.00;;;;;;;;;;5035156;28;20037;-86
2022/09/04 07:17:23;;;;;;;1.40;0.90;;;;;;;;;;5026111;28;20399;-86
2022/09/04 07:19:52;;;;;;;1.63;1.00;;;;;;;;;;5034613;28;20495;-86
2022/09/04 07:22:28;;;;;;;2.70;1.00;;;;;;;;;;5033763;28;20562;-86
2022/09/04 07:25:26;;;;;;;1.17;1.00;;;;;;;;;;5033505;28;20076;-86
2022/09/04 07:28:13;;;;;;;0.95;0.85;;;;;;;;;;5035319;28;20504;-87
2022/09/04 07:31:02;;;;;;;1.10;1.00;;;;;;;;;;5035060;28;20037;-87
2022/09/04 07:33:49;;;;;;;2.03;0.73;;;;;;;;;;5036378;28;20041;-87
2022/09/04 07:36:44;;;;;;;1.10;0.70;;;;;;;;;;5035913;28;20029;-83
2022/09/04 07:39:56;;;;;;;1.50;0.90;;;;;;;;;;5036294;28;20033;-87
2022/09/04 07:42:33;;;;;;;2.25;1.00;;;;;;;;;;5034716;28;20068;-88
2022/09/04 07:45:05;;;;;;;2.25;0.93;;;;;;;;;;5034222;28;20113;-87
2022/09/04 07:47:48;;;;;;;1.45;0.80;;;;;;;;;;5036274;28;20048;-87
2022/09/04 07:50:21;;;;;;;1.20;0.82;;;;;;;;;;5036851;28;20049;-87
2022/09/04 07:53:04;;;;;;;2.25;1.00;;;;;;;;;;5037722;28;20059;-87
2022/09/04 07:55:40;;;;;;;1.02;0.90;;;;;;;;;;5039015;28;20025;-87
2022/09/04 07:58:24;;;;;;;1.35;0.80;;;;;;;;;;5039370;28;20037;-86
2022/09/04 08:00:50;;;;;;;0.95;0.90;;;;;;;;;;5037720;28;20041;-86
2022/09/04 08:03:39;;;;;;;2.38;1.40;;;;;;;;;;5039078;28;20022;-89
2022/09/04 08:06:13;;;;;;;1.40;0.90;;;;;;;;;;5038190;28;20029;-87
2022/09/04 08:08:48;;;;;;;1.10;0.82;;;;;;;;;;5036922;28;20040;-88
2022/09/04 08:11:22;;;;;;;1.15;1.00;;;;;;;;;;5036081;28;20025;-88
2022/09/04 08:14:18;;;;;;;1.00;0.90;;;;;;;;;;5036106;28;20094;-88
2022/09/04 08:17:05;;;;;;;2.65;0.90;;;;;;;;;;5035296;28;20045;-88
2022/09/04 08:19:48;;;;;;;0.90;0.90;;;;;;;;;;5035428;28;20029;-87
2022/09/04 08:22:26;;;;;;;1.00;0.80;;;;;;;;;;5035651;28;20498;-87
2022/09/04 08:25:15;;;;;;;0.93;0.82;;;;;;;;;;5035838;28;20029;-88
2022/09/04 08:27:50;;;;;;;1.17;1.08;;;;;;;;;;5035907;28;20484;-87
2022/09/04 08:30:19;;;;;;;1.00;0.90;;;;;;;;;;5034718;28;20044;-87
2022/09/04 08:33:05;;;;;;;1.83;1.05;;;;;;;;;;5035119;28;20095;-89
2022/09/04 08:35:58;;;;;;;1.92;1.00;;;;;;;;;;5036729;28;20044;-88
2022/09/04 08:38:42;;;;;;;1.25;0.90;;;;;;;;;;5036475;28;20033;-88
2022/09/04 08:41:29;;;;;;;1.23;1.02;;;;;;;;;;5035692;28;20038;-88
2022/09/04 08:44:23;;;;;;;1.60;0.98;;;;;;;;;;5035578;28;20039;-88
2022/09/04 08:47:17;;;;;;;1.30;1.00;;;;;;;;;;5035363;28;20030;-88
2022/09/04 08:49:57;;;;;;;0.88;0.85;;;;;;;;;;5034814;28;20034;-88
2022/09/04 08:52:44;;;;;;;1.13;0.80;;;;;;;;;;5034809;28;20041;-88
2022/09/04 08:55:24;;;;;;;2.83;1.10;;;;;;;;;;5034943;28;20029;-88
2022/09/04 08:58:08;;;;;;;0.88;0.82;;;;;;;;;;5034730;28;20037;-88
2022/09/04 09:01:04;;;;;;;0.70;0.70;;;;;;;;;;5035675;28;20092;-87
2022/09/04 09:03:36;;;;;;;1.05;0.80;;;;;;;;;;5035040;28;20138;-82
2022/09/04 09:06:07;;;;;;;3.28;0.80;;;;;;;;;;5035047;28;20164;-83
2022/09/04 09:08:58;;;;;;;0.85;0.80;;;;;;;;;;5035095;28;20092;-82
2022/09/04 09:11:37;;;;;;;1.25;0.80;;;;;;;;;;5034636;28;20056;-83
2022/09/04 09:14:06;;;;;;;0.80;0.80;;;;;;;;;;5035030;28;20111;-83
2022/09/04 09:16:41;;;;;;;1.27;0.90;;;;;;;;;;5034996;28;20083;-83
2022/09/04 09:19:32;;;;;;;1.25;0.90;;;;;;;;;;5034890;28;20482;-83
2022/09/04 09:22:30;;;;;;;2.47;1.00;;;;;;;;;;5033563;28;20116;-82
2022/09/04 09:25:13;;;;;;;1.17;0.90;;;;;;;;;;5007178;28;20045;-81
2022/09/04 09:27:45;;;;;;;1.10;1.00;;;;;;;;;;5034882;28;20068;-83
2022/09/04 09:30:19;;;;;;;1.55;1.00;;;;;;;;;;5034742;28;20498;-82
2022/09/04 09:33:07;;;;;;;0.93;0.90;;;;;;;;;;5034299;28;20095;-83
2022/09/04 09:36:03;;;;;;;1.13;1.00;;;;;;;;;;5033117;28;20030;-83
2022/09/04 09:39:00;;;;;;;1.33;1.10;;;;;;;;;;5034571;28;20634;-83
2022/09/04 09:42:08;;;;;;;1.80;1.10;;;;;;;;;;5034682;28;20073;-83
2022/09/04 09:45:02;;;;;;;0.90;0.90;;;;;;;;;;5006990;28;20045;-83
2022/09/04 09:47:49;;;;;;;1.70;1.00;;;;;;;;;;5034346;28;20029;-83
2022/09/04 09:50:39;;;;;;;1.20;1.10;;;;;;;;;;5033485;28;20037;-83
2022/09/04 09:53:40;;;;;;;3.75;1.20;;;;;;;;;;5034306;28;20038;-83
2022/09/04 09:56:35;;;;;;;1.35;1.10;;;;;;;;;;5000362;28;20538;-83
2022/09/04 09:59:13;;;;;;;1.65;1.13;;;;;;;;;;5034176;28;20087;-83
2022/09/04 10:01:48;;;;;;;1.50;1.08;;;;;;;;;;5032435;28;20038;-82
2022/09/04 10:04:27;;;;;;;2.55;1.10;;;;;;;;;;5032714;28;20045;-82
2022/09/04 10:07:24;;;;;;;2.17;1.27;;;;;;;;;;5033952;28;20117;-81
2022/09/04 10:10:18;;;;;;;1.48;1.10;;;;;;;;;;5033595;28;20660;-83
2022/09/04 10:13:17;;;;;;;1.58;1.08;;;;;;;;;;5033835;28;20029;-83
2022/09/04 10:15:49;;;;;;;2.45;1.20;;;;;;;;;;5034351;28;20026;-83
2022/09/04 10:18:32;;;;;;;1.75;1.20;;;;;;;;;;5034206;28;20030;-84
2022/09/04 10:21:20;;;;;;;1.35;1.10;;;;;;;;;;5034234;28;20052;-83
2022/09/04 10:24:15;;;;;;;2.08;1.20;;;;;;;;;;5034054;28;20037;-83
2022/09/04 10:27:29;;;;;;;1.30;1.10;;;;;;;;;;5034218;28;20116;-84
2022/09/04 10:30:07;;;;;;;2.47;1.70;;;;;;;;;;4979941;28;20496;-84
2022/09/04 10:32:54;;;;;;;1.83;1.17;;;;;;;;;;5034264;28;20437;-84
2022/09/04 10:35:24;;;;;;;3.88;1.20;;;;;;;;;;5032468;28;20037;-83
2022/09/04 10:38:25;;;;;;;1.58;1.13;;;;;;;;;;5033657;28;20029;-83
2022/09/04 10:41:05;;;;;;;3.25;1.30;;;;;;;;;;5033749;28;20037;-84
2022/09/04 10:43:56;;;;;;;2.03;1.00;;;;;;;;;;5034022;28;20572;-84
2022/09/04 10:46:39;;;;;;;1.95;1.40;;;;;;;;;;5033747;28;20043;-83
2022/09/04 10:49:11;;;;;;;1.60;1.47;;;;;;;;;;5034195;28;20112;-83
2022/09/04 10:51:59;;;;;;;2.65;1.13;;;;;;;;;;5033821;28;20299;-83
2022/09/04 10:55:13;;;;;;;3.17;1.40;;;;;;;;;;5032271;28;20490;-84
2022/09/04 10:57:38;;;;;;;1.50;1.08;;;;;;;;;;4964115;28;20070;-84
2022/09/04 11:00:21;;;;;;;2.25;1.50;;;;;;;;;;5033839;28;20053;-83
2022/09/04 11:03:14;;;;;;;1.50;1.20;;;;;;;;;;5033858;28;20440;-83
2022/09/04 11:06:01;;;;;;;1.92;1.20;;;;;;;;;;5032915;28;20056;-83
2022/09/04 11:09:03;;;;;;;2.42;1.40;;;;;;;;;;5033655;28;20037;-84
2022/09/04 11:11:50;;;;;;;3.47;1.40;;;;;;;;;;5032051;28;20044;-83
2022/09/04 11:14:49;;;;;;;2.67;1.40;;;;;;;;;;5031999;28;20120;-82
2022/09/04 11:17:36;;;;;;;1.95;1.20;;;;;;;;;;5033079;28;20049;-82
2022/09/04 11:20:38;;;;;;;3.60;1.50;;;;;;;;;;5033703;28;20041;-83
2022/09/04 11:23:36;;;;;;;3.30;1.48;;;;;;;;;;5036954;28;20044;-83
2022/09/04 11:26:16;;;;;;;3.97;1.50;;;;;;;;;;5036813;28;20037;-83
2022/09/04 11:29:11;;;;;;;2.15;1.30;;;;;;;;;;5037092;28;20033;-83
2022/09/04 11:31:49;;;;;;;1.80;1.20;;;;;;;;;;5036617;28;20064;-83
2022/09/04 11:34:51;;;;;;;2.03;1.25;;;;;;;;;;5036851;28;20144;-83
2022/09/04 11:38:02;;;;;;;3.38;1.30;;;;;;;;;;5035644;28;20033;-83
2022/09/04 11:41:23;;;;;;;1.90;1.23;;;;;;;;;;5013051;28;20037;-83
2022/09/04 11:43:48;;;;;;;3.28;1.38;;;;;;;;;;4975851;28;20050;-83
2022/09/04 11:46:19;;;;;;;1.85;1.10;;;;;;;;;;4974868;28;20039;-83
2022/09/04 11:49:08;;;;;;;1.63;1.20;;;;;;;;;;5013169;28;20102;-83
2022/09/04 11:52:09;;;;;;;1.58;1.30;;;;;;;;;;5036156;28;20083;-82
2022/09/04 11:55:16;;;;;;;2.05;1.10;;;;;;;;;;5034966;28;20034;-83
2022/09/04 11:58:00;;;;;;;1.98;1.30;;;;;;;;;;4959062;28;20555;-83
2022/09/04 12:00:40;;;;;;;2.22;1.13;;;;;;;;;;5030869;28;20052;-83
2022/09/04 12:03:11;;;;;;;1.92;1.20;;;;;;;;;;5036472;28;20033;-83
2022/09/04 12:05:44;;;;;;;1.80;1.20;;;;;;;;;;5035829;28;20041;-82
2022/09/04 12:08:34;;;;;;;1.55;1.20;;;;;;;;;;5036172;28;20087;-82
2022/09/04 12:11:38;;;;;;;3.05;1.38;;;;;;;;;;5035403;28;20040;-82
2022/09/04 12:14:42;;;;;;;2.10;1.40;;;;;;;;;;5032851;28;20515;-83
2022/09/04 12:17:16;;;;;;;1.30;1.08;;;;;;;;;;5036354;28;20068;-83
2022/09/04 12:20:06;;;;;;;1.48;1.10;;;;;;;;;;5036198;28;20037;-83
2022/09/04 12:22:34;;;;;;;1.83;1.25;;;;;;;;;;5035566;28;20505;-83
2022/09/04 12:25:24;;;;;;;1.75;1.20;;;;;;;;;;5035799;28;20059;-83
2022/09/04 12:28:33;;;;;;;3.42;1.30;;;;;;;;;;5038357;28;20041;-88
2022/09/04 12:31:10;;;;;;;1.70;1.05;;;;;;;;;;5008392;28;20057;-88
2022/09/04 12:33:53;;;;;;;1.20;1.10;;;;;;;;;;5037409;28;20038;-87
2022/09/04 12:36:46;;;;;;;1.55;1.13;;;;;;;;;;5036787;28;20064;-87
2022/09/04 12:39:36;;;;;;;1.83;1.30;;;;;;;;;;5036125;28;20083;-88
2022/09/04 12:42:25;;;;;;;1.52;1.08;;;;;;;;;;5035043;28;20088;-87
2022/09/04 12:45:22;;;;;;;2.28;1.20;;;;;;;;;;5036016;28;20079;-87
2022/09/04 12:48:09;;;;;;;2.30;1.17;;;;;;;;;;5036931;28;20116;-87
2022/09/04 12:50:38;;;;;;;1.80;1.10;;;;;;;;;;5037357;28;20085;-88
2022/09/04 12:53:43;;;;;;;1.95;1.25;;;;;;;;;;5035729;28;20079;-88
2022/09/04 12:56:41;;;;;;;2.40;1.00;;;;;;;;;;5035863;28;20037;-87
2022/09/04 12:59:16;;;;;;;1.60;1.10;;;;;;;;;;5036908;28;20479;-87
2022/09/04 13:01:59;;;;;;;1.10;1.00;;;;;;;;;;5036369;28;20099;-88
2022/09/04 13:04:39;;;;;;;1.60;1.08;;;;;;;;;;5035140;28;20060;-88
2022/09/04 13:07:41;;;;;;;2.72;1.05;;;;;;;;;;5036497;28;20037;-87
2022/09/04 13:10:25;;;;;;;1.20;1.10;;;;;;;;;;5036037;28;20033;-88
2022/09/04 13:13:06;;;;;;;0.90;0.80;;;;;;;;;;5034857;28;20072;-88
2022/09/04 13:15:43;;;;;;;3.67;1.60;;;;;;;;;;5035842;28;20568;-87
2022/09/04 13:18:21;;;;;;;2.15;1.20;;;;;;;;;;5034819;28;20506;-87
2022/09/04 13:21:04;;;;;;;1.67;1.13;;;;;;;;;;5036084;28;20075;-87
2022/09/04 13:24:18;;;;;;;2.28;1.25;;;;;;;;;;5036591;28;20044;-87
2022/09/04 13:27:25;;;;;;;1.77;1.10;;;;;;;;;;5022529;28;20083;-87
2022/09/04 13:30:05;;;;;;;1.15;1.02;;;;;;;;;;5035723;28;20037;-87
2022/09/04 13:32:45;;;;;;;1.55;1.00;;;;;;;;;;5036643;28;20569;-87
2022/09/04 13:35:49;;;;;;;2.20;1.00;;;;;;;;;;5037439;28;20037;-87
2022/09/04 13:38:39;;;;;;;1.52;1.02;;;;;;;;;;5035900;28;20060;-87
2022/09/04 13:41:26;;;;;;;1.92;1.20;;;;;;;;;;5037519;28;20025;-88
2022/09/04 13:44:04;;;;;;;1.38;1.15;;;;;;;;;;5035823;28;20236;-88
2022/09/04 13:46:58;;;;;;;2.20;1.35;;;;;;;;;;5037142;28;20037;-88
2022/09/04 13:49:32;;;;;;;1.67;1.20;;;;;;;;;;5037240;28;20052;-88
2022/09/04 13:52:10;;;;;;;1.75;1.15;;;;;;;;;;5037728;28;20059;-88
2022/09/04 13:54:41;;;;;;;2.45;1.13;;;;;;;;;;5035948;28;20123;-88
2022/09/04 13:57:16;;;;;;;2.10;1.10;;;;;;;;;;5035879;28;20038;-89
2022/09/04 13:59:48;;;;;;;1.63;1.02;;;;;;;;;;5035151;28;20069;-88
2022/09/04 14:02:23;;;;;;;3.20;1.15;;;;;;;;;;5036140;28;20052;-87
2022/09/04 14:04:52;;;;;;;2.95;1.10;;;;;;;;;;5036067;28;20079;-87
2022/09/04 14:07:28;;;;;;;1.30;1.13;;;;;;;;;;5035232;28;20025;-88
2022/09/04 14:09:57;;;;;;;2.17;1.17;;;;;;;;;;5035352;28;20048;-87
2022/09/04 14:12:31;;;;;;;1.45;1.17;;;;;;;;;;5037995;28;20407;-88
2022/09/04 14:14:58;;;;;;;1.70;1.30;;;;;;;;;;5038295;28;20087;-87
2022/09/04 14:17:33;;;;;;;2.28;1.10;;;;;;;;;;5035949;28;20116;-88
2022/09/04 14:20:20;;;;;;;2.80;1.13;;;;;;;;;;5035032;28;20112;-88
2022/09/04 14:23:27;;;;;;;2.47;1.10;;;;;;;;;;5034161;28;20510;-89
2022/09/04 14:26:11;;;;;;;1.98;1.30;;;;;;;;;;5035210;28;20560;-87
2022/09/04 14:28:42;;;;;;;2.40;1.20;;;;;;;;;;5034207;28;20049;-88
2022/09/04 14:31:08;;;;;;;2.65;1.20;;;;;;;;;;5034057;28;20557;-88
2022/09/04 14:33:42;;;;;;;1.30;1.20;;;;;;;;;;5034270;28;20080;-88
2022/09/04 14:36:22;;;;;;;1.70;1.10;;;;;;;;;;5034602;28;20117;-87
2022/09/04 14:38:59;;;;;;;4.57;1.38;;;;;;;;;;5034929;28;20041;-87
2022/09/04 14:41:48;;;;;;;1.55;1.10;;;;;;;;;;5037781;28;20033;-85
2022/09/04 14:44:23;;;;;;;1.73;1.20;;;;;;;;;;5035155;28;20041;-87
2022/09/04 14:47:37;;;;;;;2.17;1.35;;;;;;;;;;5034117;28;20057;-88
2022/09/04 14:50:07;;;;;;;2.25;1.20;;;;;;;;;;4992090;28;20049;-89
2022/09/04 14:52:49;;;;;;;2.42;1.10;;;;;;;;;;5039438;28;20049;-87
2022/09/04 14:55:28;;;;;;;2.30;1.30;;;;;;;;;;5054736;28;20051;-87
2022/09/04 14:58:02;;;;;;;3.40;1.20;;;;;;;;;;5057799;28;20040;-89
2022/09/04 15:00:32;;;;;;;3.92;1.20;;;;;;;;;;5059268;28;20028;-88
2022/09/04 15:03:15;;;;;;;1.80;1.20;;;;;;;;;;5058741;28;20044;-88
2022/09/04 15:05:52;;;;;;;2.80;1.20;;;;;;;;;;5058825;28;20037;-88
2022/09/04 15:08:32;;;;;;;1.52;1.20;;;;;;;;;;5060426;28;20409;-89
2022/09/04 15:11:03;;;;;;;2.42;1.20;;;;;;;;;;5058083;28;20151;-89
2022/09/04 15:13:30;;;;;;;1.75;1.10;;;;;;;;;;5058611;28;20037;-87
2022/09/04 15:16:10;;;;;;;1.55;1.10;;;;;;;;;;5058153;28;20048;-87
2022/09/04 15:18:39;;;;;;;1.70;1.10;;;;;;;;;;5059280;28;20124;-87
2022/09/04 15:21:10;;;;;;;1.48;1.08;;;;;;;;;;5058987;28;20037;-87
2022/09/04 15:23:51;;;;;;;1.33;1.00;;;;;;;;;;5059233;28;20429;-87
2022/09/04 15:26:29;;;;;;;1.15;1.00;;;;;;;;;;5058424;28;20037;-87
2022/09/04 15:29:07;;;;;;;1.27;1.10;;;;;;;;;;5059705;28;20055;-87
2022/09/04 15:31:37;;;;;;;3.33;1.20;;;;;;;;;;5058583;28;20044;-87
2022/09/04 15:34:07;;;;;;;2.60;1.23;;;;;;;;;;5058718;28;20428;-87
2022/09/04 15:36:36;;;;;;;2.60;1.10;;;;;;;;;;5060397;28;20053;-89
2022/09/04 15:39:08;;;;;;;1.20;1.10;;;;;;;;;;5059517;28;20029;-88
2022/09/04 15:41:44;;;;;;;1.70;1.15;;;;;;;;;;5059615;28;20040;-87
2022/09/04 15:44:26;;;;;;;1.67;1.00;;;;;;;;;;5059997;28;20485;-87
2022/09/04 15:47:00;;;;;;;1.73;1.20;;;;;;;;;;5061050;28;20060;-88
2022/09/04 15:49:48;;;;;;;1.42;1.08;;;;;;;;;;5059836;28;20049;-87
2022/09/04 15:52:39;;;;;;;2.15;1.13;;;;;;;;;;5058602;28;20088;-88
2022/09/04 15:55:23;;;;;;;1.52;1.00;;;;;;;;;;5057874;28;20033;-88
2022/09/04 15:58:13;;;;;;;2.80;1.20;;;;;;;;;;5057258;28;20428;-88
2022/09/04 16:01:12;;;;;;;2.47;1.40;;;;;;;;;;5056751;28;20037;-87
2022/09/04 16:04:14;;;;;;;1.52;1.17;;;;;;;;;;5058467;28;20041;-87
2022/09/04 16:06:53;;;;;;;1.48;1.05;;;;;;;;;;5039524;28;20053;-87
2022/09/04 16:09:36;;;;;;;1.42;1.13;;;;;;;;;;5056335;28;20041;-88
2022/09/04 16:12:20;;;;;;;2.13;0.98;;;;;;;;;;5056255;28;20029;-87
2022/09/04 16:14:50;;;;;;;1.83;1.23;;;;;;;;;;5057209;28;20032;-87
2022/09/04 16:17:24;;;;;;;4.03;1.30;;;;;;;;;;5057376;28;20086;-86
2022/09/04 16:20:09;;;;;;;1.85;1.13;;;;;;;;;;5057823;28;20051;-87
2022/09/04 16:22:46;;;;;;;1.42;1.27;;;;;;;;;;5057755;28;20501;-87